Time;durP1;ratioP1;P1;durP2;ratioP2;P2;SDS_P1;SDS_P2;PMS_P1;PMS_P2;Temp;Humidity;BMP_temperature;BMP_pressure;BME280_temperature;BME280_humidity;BME280_pressure;Samples;Min_cycle;Max_cycle;Signal;HPM_P1;HPM_P2
2022/03/23 00:00:09;;;;;;;;;;;7.80;83.50;;;;;;5071057;28;19924;-53
2022/03/23 00:02:37;;;;;;;;;;;7.60;85.30;;;;;;5070860;28;19932;-53
2022/03/23 00:05:04;;;;;;;;;;;7.70;84.20;;;;;;5071503;28;20327;-52
2022/03/23 00:07:31;;;;;;;;;;;7.70;82.70;;;;;;5071160;28;19977;-52
2022/03/23 00:09:57;;;;;;;;;;;7.70;82.40;;;;;;5071087;28;19925;-52
2022/03/23 00:12:24;;;;;;;;;;;7.50;82.30;;;;;;5108267;22;19989;-51
2022/03/23 00:14:51;;;;;;;;;;;7.60;82.20;;;;;;5088252;28;20002;-52
2022/03/23 00:17:18;;;;;;;;;;;7.60;82.40;;;;;;5089020;28;20448;-55
2022/03/23 00:19:46;;;;;;;;;;;7.40;83.90;;;;;;5089154;28;19997;-54
2022/03/23 00:22:13;;;;;;;;;;;7.30;84.00;;;;;;5088427;28;19924;-52
2022/03/23 00:24:39;;;;;;;;;;;7.20;84.20;;;;;;5088725;28;20263;-53
2022/03/23 00:27:06;;;;;;;;;;;7.10;84.10;;;;;;5088260;28;20460;-53
2022/03/23 00:29:33;;;;;;;;;;;6.90;84.70;;;;;;5088141;28;20008;-53
2022/03/23 00:31:59;;;;;;;;;;;6.80;85.90;;;;;;5087237;28;19969;-53
2022/03/23 00:34:26;;;;;;;;;;;6.80;86.40;;;;;;5088587;28;19977;-52
2022/03/23 00:36:54;;;;;;;;;;;6.70;86.60;;;;;;5089010;28;19984;-52
2022/03/23 00:39:22;;;;;;;;;;;6.70;86.50;;;;;;5090243;28;19993;-52
2022/03/23 00:41:50;;;;;;;;;;;6.50;86.90;;;;;;5091269;28;20034;-53
2022/03/23 00:44:17;;;;;;;;;;;6.10;87.50;;;;;;5090990;28;19924;-53
2022/03/23 00:46:44;;;;;;;;;;;6.00;88.30;;;;;;5091955;28;19989;-53
2022/03/23 00:49:10;;;;;;;;;;;6.00;89.00;;;;;;5091717;28;20437;-53
2022/03/23 00:51:37;;;;;;;;;;;6.00;88.90;;;;;;5091190;28;20310;-52
2022/03/23 00:54:05;;;;;;;;;;;5.90;89.40;;;;;;5090768;28;20449;-53
2022/03/23 00:56:32;;;;;;;;;;;5.70;90.00;;;;;;5090976;28;19924;-53
2022/03/23 00:58:59;;;;;;;;;;;5.40;90.30;;;;;;5091295;28;19981;-52
2022/03/23 01:01:26;;;;;;;;;;;5.40;90.50;;;;;;5091231;28;19985;-53
2022/03/23 01:03:52;;;;;;;;;;;5.30;91.00;;;;;;5089626;28;19932;-53
2022/03/23 01:06:19;;;;;;;;;;;5.30;91.20;;;;;;5083003;28;19978;-52
2022/03/23 01:08:46;;;;;;;;;;;5.10;91.60;;;;;;5090365;28;19977;-54
2022/03/23 01:11:14;;;;;;;;;;;5.20;91.70;;;;;;5088627;28;19928;-52
2022/03/23 01:13:41;;;;;;;;;;;5.20;91.70;;;;;;5088639;28;19924;-52
2022/03/23 01:16:12;;;;;;;;;;;5.30;91.70;;;;;;5070646;28;20007;-53
2022/03/23 01:18:39;;;;;;;;;;;5.30;91.70;;;;;;5091432;28;19928;-53
2022/03/23 01:21:06;;;;;;;;;;;5.10;91.90;;;;;;5090886;28;19928;-52
2022/03/23 01:23:32;;;;;;;;;;;5.20;91.90;;;;;;5089275;28;19928;-52
2022/03/23 01:26:00;;;;;;;;;;;5.20;91.90;;;;;;5090340;28;20602;-52
2022/03/23 01:28:28;;;;;;;;;;;4.90;92.60;;;;;;5091142;28;19924;-52
2022/03/23 01:30:55;;;;;;;;;;;4.70;93.00;;;;;;5086894;28;19932;-52
2022/03/23 01:33:21;;;;;;;;;;;4.60;93.80;;;;;;5084011;28;20262;-52
2022/03/23 01:35:48;;;;;;;;;;;4.60;93.80;;;;;;5089055;28;20031;-52
2022/03/23 01:38:15;;;;;;;;;;;4.50;93.80;;;;;;5089749;28;20067;-52
2022/03/23 01:40:42;;;;;;;;;;;4.50;94.00;;;;;;5090845;28;19932;-52
2022/03/23 01:43:08;;;;;;;;;;;4.40;94.60;;;;;;5089810;28;19924;-52
2022/03/23 01:45:36;;;;;;;;;;;4.60;94.20;;;;;;5083195;28;19985;-52
2022/03/23 01:48:03;;;;;;;;;;;4.80;93.70;;;;;;5088351;28;19924;-52
2022/03/23 01:50:30;;;;;;;;;;;4.60;93.80;;;;;;5088981;28;20102;-51
2022/03/23 01:52:57;;;;;;;;;;;4.50;94.30;;;;;;5089149;28;19924;-52
2022/03/23 01:55:24;;;;;;;;;;;4.60;94.30;;;;;;5090164;28;19927;-52
2022/03/23 01:57:52;;;;;;;;;;;4.40;94.90;;;;;;5090124;28;19932;-52
2022/03/23 02:00:20;;;;;;;;;;;4.30;95.40;;;;;;5090098;28;19951;-52
2022/03/23 02:02:48;;;;;;;;;;;4.10;95.80;;;;;;5089838;28;19973;-52
2022/03/23 02:05:15;;;;;;;;;;;4.00;96.50;;;;;;5090473;28;20367;-52
2022/03/23 02:07:42;;;;;;;;;;;4.20;96.00;;;;;;5090511;28;19932;-52
2022/03/23 02:10:09;;;;;;;;;;;4.00;96.10;;;;;;5090587;28;19924;-52
2022/03/23 02:12:37;;;;;;;;;;;4.00;96.50;;;;;;5089981;28;20298;-53
2022/03/23 02:15:10;;;;;;;;;;;3.90;96.90;;;;;;5084600;28;19959;-52
2022/03/23 02:17:37;;;;;;;;;;;3.90;96.90;;;;;;5090067;28;19924;-52
2022/03/23 02:20:06;;;;;;;;;;;4.20;96.50;;;;;;5089421;28;20014;-52
2022/03/23 02:22:34;;;;;;;;;;;4.40;95.90;;;;;;5089168;28;19932;-52
2022/03/23 02:25:01;;;;;;;;;;;4.20;96.10;;;;;;5089451;28;19981;-52
2022/03/23 02:27:28;;;;;;;;;;;4.10;96.50;;;;;;5089891;28;20000;-52
2022/03/23 02:29:54;;;;;;;;;;;4.10;96.70;;;;;;5089446;28;19996;-52
2022/03/23 02:32:21;;;;;;;;;;;4.10;97.00;;;;;;5089252;28;19932;-52
2022/03/23 02:34:48;;;;;;;;;;;3.80;97.60;;;;;;5089653;28;20390;-53
2022/03/23 02:37:16;;;;;;;;;;;3.70;98.40;;;;;;5089658;28;19928;-52
2022/03/23 02:39:44;;;;;;;;;;;3.60;98.90;;;;;;5087491;28;19947;-53
2022/03/23 02:42:11;;;;;;;;;;;3.40;99.50;;;;;;5089169;28;19928;-52
2022/03/23 02:44:37;;;;;;;;;;;3.40;99.90;;;;;;5089324;28;19928;-53
2022/03/23 02:47:05;;;;;;;;;;;3.50;99.90;;;;;;5089507;28;19924;-52
2022/03/23 02:49:32;;;;;;;;;;;3.40;99.90;;;;;;5089171;28;19936;-52
2022/03/23 02:51:59;;;;;;;;;;;3.40;99.90;;;;;;5089063;28;19975;-53
2022/03/23 03:02:44;;;;;;;;;;;3.30;99.90;;;;;;5074386;28;19992;-52
2022/03/23 03:05:12;;;;;;;;;;;3.80;99.90;;;;;;5089312;28;20272;-52
2022/03/23 03:10:24;;;;;;;;;;;4.20;99.90;;;;;;5089312;28;19943;-52
2022/03/23 03:12:52;;;;;;;;;;;3.90;99.90;;;;;;5088467;28;20399;-52
2022/03/23 03:15:20;;;;;;;;;;;3.60;99.90;;;;;;5088719;28;20336;-52
2022/03/23 03:17:47;;;;;;;;;;;3.40;99.90;;;;;;5087909;28;19981;-52
2022/03/23 03:20:14;;;;;;;;;;;3.40;99.90;;;;;;5087053;28;20279;-52
2022/03/23 03:22:42;;;;;;;;;;;3.40;99.90;;;;;;5087847;28;20027;-52
2022/03/23 03:25:12;;;;;;;;;;;3.30;99.90;;;;;;5089155;28;19928;-53
2022/03/23 03:27:40;;;;;;;;;;;3.20;99.90;;;;;;5089047;28;20387;-52
2022/03/23 03:30:10;;;;;;;;;;;3.20;99.90;;;;;;5088779;28;19924;-53
2022/03/23 03:32:37;;;;;;;;;;;3.20;99.90;;;;;;5087943;28;19946;-52
2022/03/23 03:35:04;;;;;;;;;;;3.20;99.90;;;;;;5089013;28;19928;-52
2022/03/23 03:37:30;;;;;;;;;;;3.30;99.90;;;;;;5088717;28;19945;-52
2022/03/23 03:39:57;;;;;;;;;;;3.40;99.90;;;;;;5089203;28;20283;-52
2022/03/23 03:42:25;;;;;;;;;;;3.50;99.90;;;;;;5088664;28;20315;-52
2022/03/23 03:44:52;;;;;;;;;;;3.70;99.90;;;;;;5088231;28;20022;-52
2022/03/23 03:47:20;;;;;;;;;;;3.70;99.90;;;;;;5089261;28;20657;-52
2022/03/23 03:49:47;;;;;;;;;;;3.50;99.90;;;;;;5088650;28;20001;-52
2022/03/23 03:52:14;;;;;;;;;;;3.40;99.90;;;;;;5088705;28;20252;-52
2022/03/23 03:54:41;;;;;;;;;;;3.40;99.90;;;;;;5088682;28;20398;-52
2022/03/23 03:57:08;;;;;;;;;;;3.40;99.90;;;;;;5088419;28;19943;-52
2022/03/23 03:59:35;;;;;;;;;;;3.40;99.90;;;;;;5074168;28;20006;-52
2022/03/23 04:02:02;;;;;;;;;;;3.20;99.90;;;;;;5088906;28;19924;-52
2022/03/23 04:04:30;;;;;;;;;;;2.90;99.90;;;;;;5088122;28;19931;-52
2022/03/23 04:06:57;;;;;;;;;;;2.60;99.90;;;;;;5068348;28;20350;-52
2022/03/23 04:09:24;;;;;;;;;;;2.60;99.90;;;;;;5080959;28;19923;-53
2022/03/23 04:11:51;;;;;;;;;;;2.60;99.90;;;;;;5091953;28;19924;-52
2022/03/23 04:14:18;;;;;;;;;;;2.50;99.90;;;;;;5092164;28;19927;-52
2022/03/23 04:16:45;;;;;;;;;;;2.50;99.90;;;;;;5092180;28;19934;-52
2022/03/23 04:19:11;;;;;;;;;;;2.40;99.90;;;;;;5092040;28;19985;-52
2022/03/23 04:21:40;;;;;;;;;;;2.40;99.90;;;;;;5091758;28;19932;-52
2022/03/23 04:24:07;;;;;;;;;;;2.40;99.90;;;;;;5091512;28;20006;-52
2022/03/23 04:26:34;;;;;;;;;;;2.30;99.90;;;;;;5091719;28;19931;-52
2022/03/23 04:29:01;;;;;;;;;;;2.30;99.90;;;;;;5092050;28;19931;-52
2022/03/23 04:31:28;;;;;;;;;;;2.30;99.90;;;;;;5091614;28;20434;-52
2022/03/23 04:33:55;;;;;;;;;;;2.40;99.90;;;;;;5091236;28;19947;-52
2022/03/23 04:36:22;;;;;;;;;;;2.40;99.90;;;;;;5092139;28;20474;-52
2022/03/23 04:38:50;;;;;;;;;;;2.40;99.90;;;;;;5091625;28;20058;-52
2022/03/23 04:41:17;;;;;;;;;;;2.60;99.90;;;;;;5091480;28;19924;-52
2022/03/23 04:43:44;;;;;;;;;;;2.60;99.90;;;;;;5091014;28;20424;-52
2022/03/23 04:46:13;;;;;;;;;;;2.50;99.90;;;;;;5091545;28;19980;-52
2022/03/23 04:48:40;;;;;;;;;;;2.40;99.90;;;;;;5091617;28;19970;-53
2022/03/23 04:51:07;;;;;;;;;;;2.40;99.90;;;;;;5091679;28;20000;-52
2022/03/23 04:53:34;;;;;;;;;;;2.30;99.90;;;;;;5090632;28;19993;-52
2022/03/23 04:56:02;;;;;;;;;;;2.30;99.90;;;;;;5091291;28;19950;-52
2022/03/23 04:58:29;;;;;;;;;;;2.50;99.90;;;;;;5073898;28;19924;-52
2022/03/23 05:00:57;;;;;;;;;;;2.30;99.90;;;;;;5091274;28;19924;-53
2022/03/23 05:03:24;;;;;;;;;;;2.50;99.90;;;;;;5090542;28;19936;-52
2022/03/23 05:05:52;;;;;;;;;;;2.50;99.90;;;;;;5087260;28;20014;-52
2022/03/23 05:08:18;;;;;;;;;;;2.30;99.90;;;;;;5090878;28;20027;-52
2022/03/23 05:10:45;;;;;;;;;;;2.20;99.90;;;;;;5090791;28;19932;-52
2022/03/23 05:13:13;;;;;;;;;;;2.20;99.90;;;;;;5090044;28;19993;-52
2022/03/23 05:15:40;;;;;;;;;;;2.10;99.90;;;;;;5088047;28;20000;-52
2022/03/23 05:18:07;;;;;;;;;;;2.00;99.90;;;;;;5090475;28;19977;-52
2022/03/23 05:20:34;;;;;;;;;;;2.00;99.90;;;;;;5089948;28;19932;-52
2022/03/23 05:23:02;;;;;;;;;;;2.00;99.90;;;;;;5085674;28;20370;-52
2022/03/23 05:25:30;;;;;;;;;;;1.90;99.90;;;;;;5089453;28;20019;-52
2022/03/23 05:27:56;;;;;;;;;;;2.10;99.90;;;;;;5090007;28;20448;-52
2022/03/23 05:30:24;;;;;;;;;;;2.10;99.90;;;;;;5089769;28;19924;-52
2022/03/23 05:32:51;;;;;;;;;;;2.20;99.90;;;;;;5090088;28;20408;-52
2022/03/23 05:35:18;;;;;;;;;;;2.30;99.90;;;;;;5090018;28;20018;-52
2022/03/23 05:37:45;;;;;;;;;;;2.20;99.90;;;;;;5089871;28;19932;-52
2022/03/23 05:40:13;;;;;;;;;;;2.20;99.90;;;;;;5085735;28;19932;-52
2022/03/23 05:42:40;;;;;;;;;;;2.10;99.90;;;;;;5089481;28;20252;-52
2022/03/23 05:45:07;;;;;;;;;;;2.10;99.90;;;;;;5089765;28;20026;-52
2022/03/23 05:47:36;;;;;;;;;;;2.10;99.90;;;;;;5089567;28;19928;-52
2022/03/23 05:50:03;;;;;;;;;;;2.20;99.90;;;;;;5089774;28;19924;-52
2022/03/23 05:52:30;;;;;;;;;;;2.30;99.90;;;;;;5089639;28;20003;-52
2022/03/23 05:54:57;;;;;;;;;;;2.50;99.90;;;;;;5089468;28;19924;-52
2022/03/23 05:57:23;;;;;;;;;;;2.70;99.90;;;;;;5089740;28;19924;-53
2022/03/23 05:59:50;;;;;;;;;;;3.10;99.90;;;;;;5089686;28;19970;-52
2022/03/23 06:02:17;;;;;;;;;;;3.00;99.90;;;;;;5088568;28;20454;-52
2022/03/23 06:04:46;;;;;;;;;;;3.00;99.90;;;;;;5088672;28;19981;-52
2022/03/23 06:07:12;;;;;;;;;;;3.00;99.90;;;;;;5089479;28;19940;-52
2022/03/23 06:09:39;;;;;;;;;;;3.00;99.90;;;;;;5089257;28;19925;-53
2022/03/23 06:12:07;;;;;;;;;;;3.10;99.90;;;;;;5087145;28;19989;-53
2022/03/23 06:14:34;;;;;;;;;;;3.60;99.90;;;;;;5089123;28;20304;-53
2022/03/23 06:17:01;;;;;;;;;;;5.50;99.90;;;;;;5089637;28;19996;-53
2022/03/23 06:19:28;;;;;;;;;;;7.80;99.90;;;;;;5113583;22;19993;-50
2022/03/23 06:21:56;;;;;;;;;;;10.70;99.90;;;;;;5073540;28;19924;-51
2022/03/23 06:24:23;;;;;;;;;;;13.00;99.50;;;;;;5077680;28;19978;-51
2022/03/23 06:26:49;;;;;;;;;;;15.70;92.40;;;;;;5076933;28;19978;-52
2022/03/23 06:29:16;;;;;;;;;;;17.60;86.20;;;;;;5055410;28;19995;-50
2022/03/23 06:31:43;;;;;;;;;;;19.10;75.20;;;;;;5053369;28;19924;-50
2022/03/23 06:34:10;;;;;;;;;;;19.20;71.10;;;;;;5050988;28;19994;-51
2022/03/23 06:36:37;;;;;;;;;;;19.50;69.30;;;;;;5051766;28;19960;-51
2022/03/23 06:39:06;;;;;;;;;;;19.90;68.30;;;;;;5051455;28;19924;-51
2022/03/23 06:41:33;;;;;;;;;;;20.80;66.60;;;;;;5051300;28;19978;-51
2022/03/23 06:44:00;;;;;;;;;;;21.80;63.80;;;;;;5051697;28;19932;-51
2022/03/23 06:46:26;;;;;;;;;;;22.30;62.50;;;;;;5050942;28;19931;-52
2022/03/23 06:48:53;;;;;;;;;;;22.80;60.40;;;;;;5051291;28;19929;-51
2022/03/23 06:51:20;;;;;;;;;;;23.40;59.80;;;;;;5051319;28;19999;-51
2022/03/23 06:53:47;;;;;;;;;;;23.10;58.20;;;;;;5052092;28;19925;-52
2022/03/23 06:56:15;;;;;;;;;;;23.10;58.30;;;;;;5037246;28;19925;-52
2022/03/23 06:58:42;;;;;;;;;;;23.40;57.30;;;;;;5050340;28;19925;-52
2022/03/23 07:01:08;;;;;;;;;;;23.60;56.60;;;;;;5051154;28;19978;-52
2022/03/23 07:03:35;;;;;;;;;;;23.30;56.20;;;;;;5051211;28;19959;-51
2022/03/23 07:06:02;;;;;;;;;;;22.60;56.60;;;;;;5050929;28;20380;-52
2022/03/23 07:11:13;;;;;;;;;;;21.50;58.50;;;;;;5049883;28;20446;-51
2022/03/23 07:13:41;;;;;;;;;;;20.30;59.90;;;;;;5048599;28;19929;-51
2022/03/23 07:16:07;;;;;;;;;;;19.70;61.40;;;;;;5049644;28;19971;-51
2022/03/23 07:18:34;;;;;;;;;;;20.30;61.60;;;;;;5048939;28;19932;-51
2022/03/23 07:21:04;;;;;;;;;;;19.30;60.50;;;;;;5046440;28;19932;-53
2022/03/23 07:23:31;;;;;;;;;;;20.20;61.20;;;;;;5048326;28;20014;-52
2022/03/23 07:25:57;;;;;;;;;;;21.60;57.60;;;;;;5050035;28;20007;-52
2022/03/23 07:28:24;;;;;;;;;;;20.90;58.00;;;;;;5053711;28;19925;-51
2022/03/23 07:30:52;;;;;;;;;;;19.70;57.10;;;;;;5049839;28;19928;-52
2022/03/23 07:33:19;;;;;;;;;;;18.00;60.80;;;;;;5052289;28;20051;-52
2022/03/23 07:35:46;;;;;;;;;;;17.00;62.00;;;;;;5049132;28;19925;-52
2022/03/23 07:38:13;;;;;;;;;;;17.70;62.00;;;;;;5051126;28;20380;-52
2022/03/23 07:40:41;;;;;;;;;;;17.70;60.60;;;;;;5051300;28;19925;-52
2022/03/23 07:43:07;;;;;;;;;;;17.30;63.30;;;;;;5052932;28;19946;-52
2022/03/23 07:45:34;;;;;;;;;;;19.00;62.60;;;;;;5055503;28;20486;-52
2022/03/23 07:48:02;;;;;;;;;;;19.20;59.80;;;;;;5055395;28;19979;-52
2022/03/23 07:50:29;;;;;;;;;;;19.00;58.10;;;;;;5051711;28;19937;-52
2022/03/23 07:52:56;;;;;;;;;;;18.90;59.00;;;;;;5055030;28;19951;-52
2022/03/23 07:55:23;;;;;;;;;;;18.60;59.30;;;;;;5055059;28;19978;-52
2022/03/23 07:57:50;;;;;;;;;;;19.30;57.40;;;;;;5059544;28;20026;-52
2022/03/23 08:00:17;;;;;;;;;;;19.90;58.40;;;;;;5059360;28;19929;-52
2022/03/23 08:02:44;;;;;;;;;;;22.60;56.10;;;;;;5054882;28;19990;-53
2022/03/23 08:05:12;;;;;;;;;;;24.30;54.30;;;;;;5059747;28;19970;-52
2022/03/23 08:07:39;;;;;;;;;;;25.60;51.10;;;;;;5073956;28;20392;-52
2022/03/23 08:10:06;;;;;;;;;;;27.80;48.50;;;;;;5052050;28;19932;-53
2022/03/23 08:12:33;;;;;;;;;;;27.20;47.80;;;;;;5057896;28;19932;-53
2022/03/23 08:14:59;;;;;;;;;;;28.20;46.80;;;;;;5067831;28;19989;-53
2022/03/23 08:17:26;;;;;;;;;;;26.50;46.80;;;;;;5070778;28;19925;-53
2022/03/23 08:22:38;;;;;;;;;;;27.80;46.20;;;;;;5073407;28;19921;-53
2022/03/23 08:25:05;;;;;;;;;;;28.90;45.00;;;;;;5065104;28;19924;-53
2022/03/23 08:27:32;;;;;;;;;;;28.80;44.40;;;;;;5054693;28;19932;-53
2022/03/23 08:29:58;;;;;;;;;;;28.20;45.70;;;;;;5054534;28;19929;-53
2022/03/23 08:32:26;;;;;;;;;;;28.00;44.00;;;;;;5054701;28;19978;-52
2022/03/23 08:34:53;;;;;;;;;;;26.70;46.80;;;;;;5054099;28;20420;-54
2022/03/23 08:37:19;;;;;;;;;;;26.50;47.90;;;;;;5060160;28;19929;-54
2022/03/23 08:39:47;;;;;;;;;;;26.40;45.90;;;;;;5054456;28;20474;-54
2022/03/23 08:42:14;;;;;;;;;;;25.50;47.50;;;;;;5069086;28;21379;-53
2022/03/23 08:44:41;;;;;;;;;;;25.20;48.00;;;;;;5053277;28;19971;-54
2022/03/23 08:47:08;;;;;;;;;;;24.80;46.80;;;;;;5059644;28;19977;-54
2022/03/23 08:49:35;;;;;;;;;;;24.50;49.50;;;;;;5074184;28;20301;-54
2022/03/23 08:52:06;;;;;;;;;;;25.20;48.50;;;;;;5053801;28;20420;-54
2022/03/23 08:54:33;;;;;;;;;;;26.40;45.80;;;;;;5053342;28;19925;-54
2022/03/23 08:57:01;;;;;;;;;;;28.60;45.10;;;;;;5054171;28;19932;-55
2022/03/23 08:59:27;;;;;;;;;;;27.90;45.30;;;;;;5052290;28;19986;-54
2022/03/23 09:01:54;;;;;;;;;;;27.30;44.60;;;;;;5060400;28;19959;-54
2022/03/23 09:04:21;;;;;;;;;;;28.00;45.50;;;;;;5059769;28;19925;-54
2022/03/23 09:06:48;;;;;;;;;;;27.90;43.40;;;;;;5072945;28;19936;-54
2022/03/23 09:09:14;;;;;;;;;;;27.50;44.70;;;;;;5072270;28;19928;-53
2022/03/23 09:11:43;;;;;;;;;;;26.80;45.90;;;;;;5054503;28;19994;-54
2022/03/23 09:14:11;;;;;;;;;;;25.80;46.90;;;;;;5069433;28;20118;-53
2022/03/23 09:16:38;;;;;;;;;;;26.10;47.00;;;;;;5062645;28;19924;-54
2022/03/23 09:19:05;;;;;;;;;;;27.90;46.40;;;;;;5073188;28;19940;-54
2022/03/23 09:21:38;;;;;;;;;;;28.10;45.00;;;;;;5073341;28;19972;-53
2022/03/23 09:24:05;;;;;;;;;;;27.90;46.20;;;;;;5073463;28;19924;-54
2022/03/23 09:26:35;;;;;;;;;;;27.40;46.70;;;;;;5060421;28;19933;-53
2022/03/23 09:29:01;;;;;;;;;;;26.70;48.40;;;;;;5054465;28;19994;-53
2022/03/23 09:31:30;;;;;;;;;;;26.60;49.10;;;;;;5053089;28;19925;-54
2022/03/23 09:33:57;;;;;;;;;;;27.50;49.60;;;;;;5053694;28;19931;-53
2022/03/23 09:39:04;;;;;;;;;;;25.40;54.00;;;;;;5052987;28;19921;-53
2022/03/23 09:41:33;;;;;;;;;;;26.00;52.20;;;;;;5057572;28;19950;-52
2022/03/23 09:44:00;;;;;;;;;;;26.20;53.70;;;;;;5057749;28;20342;-53
2022/03/23 09:46:26;;;;;;;;;;;26.30;53.20;;;;;;5052642;28;20389;-53
2022/03/23 09:48:55;;;;;;;;;;;25.50;53.00;;;;;;5052936;28;19924;-52
2022/03/23 09:51:22;;;;;;;;;;;25.90;52.00;;;;;;5052354;28;19982;-53
2022/03/23 09:53:49;;;;;;;;;;;26.60;49.90;;;;;;5052541;28;19946;-53
2022/03/23 09:56:16;;;;;;;;;;;28.10;49.20;;;;;;5051912;28;19925;-53
2022/03/23 09:58:43;;;;;;;;;;;27.50;49.60;;;;;;5052213;28;19936;-53
2022/03/23 10:01:30;;;;;;;;;;;25.30;52.50;;;;;;5052007;28;20407;-53
2022/03/23 10:04:08;;;;;;;;;;;25.30;53.10;;;;;;5052128;28;19964;-53
2022/03/23 10:06:53;;;;;;;;;;;25.50;52.60;;;;;;5052145;28;19925;-53
2022/03/23 10:09:38;;;;;;;;;;;26.10;50.60;;;;;;5053274;28;19940;-52
2022/03/23 10:12:21;;;;;;;;;;;23.50;52.20;;;;;;5052241;28;20293;-53
2022/03/23 10:15:09;;;;;;;;;;;23.70;53.50;;;;;;5052200;28;19925;-53
2022/03/23 10:17:54;;;;;;;;;;;22.80;53.50;;;;;;5052161;28;19936;-53
2022/03/23 10:20:22;;;;;;;;;;;22.10;54.00;;;;;;5052224;28;19928;-52
2022/03/23 10:22:50;;;;;;;;;;;21.60;53.60;;;;;;5052047;28;19970;-53
2022/03/23 10:25:18;;;;;;;;;;;22.50;53.60;;;;;;5050198;28;19929;-53
2022/03/23 10:27:47;;;;;;;;;;;23.00;53.10;;;;;;5049242;28;20455;-53
2022/03/23 10:30:14;;;;;;;;;;;21.70;54.10;;;;;;5052099;28;19979;-52
2022/03/23 10:32:42;;;;;;;;;;;22.10;53.20;;;;;;5051736;28;20454;-52
2022/03/23 10:35:11;;;;;;;;;;;22.70;53.30;;;;;;5051849;28;20319;-52
2022/03/23 10:37:41;;;;;;;;;;;23.50;54.60;;;;;;5051331;28;20324;-52
2022/03/23 10:40:08;;;;;;;;;;;23.70;54.50;;;;;;5051743;28;19925;-52
2022/03/23 10:42:36;;;;;;;;;;;23.60;53.00;;;;;;5051408;28;19998;-53
2022/03/23 10:45:07;;;;;;;;;;;22.90;52.90;;;;;;5051938;28;19924;-52
2022/03/23 10:47:34;;;;;;;;;;;21.40;54.70;;;;;;5051743;28;19931;-52
2022/03/23 10:50:08;;;;;;;;;;;20.80;56.40;;;;;;5051755;28;19928;-52
2022/03/23 10:52:34;;;;;;;;;;;21.30;54.20;;;;;;5051470;28;20007;-53
2022/03/23 10:55:05;;;;;;;;;;;21.90;52.30;;;;;;5051594;28;19928;-52
2022/03/23 10:57:51;;;;;;;;;;;21.20;53.80;;;;;;5051153;28;19925;-53
2022/03/23 11:00:19;;;;;;;;;;;20.70;53.80;;;;;;5051399;28;19932;-52
2022/03/23 11:02:46;;;;;;;;;;;19.80;56.30;;;;;;5051220;28;19978;-51
2022/03/23 11:05:29;;;;;;;;;;;18.30;58.80;;;;;;5051361;28;19924;-52
2022/03/23 11:08:05;;;;;;;;;;;17.50;60.10;;;;;;5050858;28;19998;-52
2022/03/23 11:16:06;;;;;;;;;;;16.90;61.00;;;;;;5051402;28;19946;-51
2022/03/23 11:18:33;;;;;;;;;;;16.60;58.70;;;;;;5049700;28;19925;-52
2022/03/23 11:21:00;;;;;;;;;;;16.80;59.80;;;;;;5051245;28;20066;-52
2022/03/23 11:23:27;;;;;;;;;;;16.60;60.20;;;;;;5050968;28;19924;-53
2022/03/23 11:25:56;;;;;;;;;;;16.80;60.40;;;;;;5050665;28;19994;-53
2022/03/23 11:28:23;;;;;;;;;;;16.80;59.30;;;;;;5050331;28;20474;-52
2022/03/23 11:30:51;;;;;;;;;;;16.40;58.20;;;;;;5050172;28;19933;-55
2022/03/23 11:33:21;;;;;;;;;;;16.50;57.50;;;;;;5050955;28;19928;-51
2022/03/23 11:35:49;;;;;;;;;;;16.00;58.70;;;;;;5051469;28;19995;-52
2022/03/23 11:38:17;;;;;;;;;;;15.80;59.20;;;;;;5049211;28;19929;-51
2022/03/23 11:40:44;;;;;;;;;;;15.70;61.40;;;;;;5050761;28;20305;-52
2022/03/23 11:43:13;;;;;;;;;;;15.60;62.30;;;;;;5051231;28;19928;-52
2022/03/23 11:45:40;;;;;;;;;;;15.80;62.70;;;;;;5051071;28;20384;-52
2022/03/23 11:48:11;;;;;;;;;;;15.80;59.10;;;;;;5068034;28;19924;-52
2022/03/23 11:50:42;;;;;;;;;;;15.70;61.60;;;;;;5071556;28;19978;-52
2022/03/23 11:53:13;;;;;;;;;;;15.50;60.70;;;;;;5071052;28;19925;-53
2022/03/23 11:55:46;;;;;;;;;;;15.70;61.20;;;;;;5068165;28;19936;-52
2022/03/23 11:58:21;;;;;;;;;;;15.90;58.90;;;;;;5051432;28;19929;-52
2022/03/23 12:00:50;;;;;;;;;;;16.30;58.00;;;;;;5051334;28;19979;-52
2022/03/23 12:03:31;;;;;;;;;;;16.60;58.10;;;;;;5050970;28;19972;-52
2022/03/23 12:06:09;;;;;;;;;;;16.80;60.90;;;;;;5050680;28;19924;-52
2022/03/23 12:08:49;;;;;;;;;;;17.00;57.40;;;;;;5050711;28;20004;-52
2022/03/23 12:11:35;;;;;;;;;;;17.00;57.80;;;;;;5051226;28;19924;-53
2022/03/23 12:14:04;;;;;;;;;;;16.90;58.00;;;;;;5050865;28;19925;-53
2022/03/23 12:16:50;;;;;;;;;;;17.00;56.50;;;;;;5050597;28;20024;-53
2022/03/23 12:19:17;;;;;;;;;;;17.00;58.20;;;;;;5094981;22;19981;-58
2022/03/23 12:21:48;;;;;;;;;;;16.80;60.30;;;;;;5090117;28;19977;-58
2022/03/23 12:24:20;;;;;;;;;;;16.50;59.10;;;;;;5090686;28;19961;-58
2022/03/23 12:26:49;;;;;;;;;;;16.80;58.80;;;;;;5090340;28;19930;-58
2022/03/23 12:29:22;;;;;;;;;;;17.10;58.40;;;;;;5092307;28;19924;-58
2022/03/23 12:31:49;;;;;;;;;;;17.10;58.30;;;;;;5094195;28;19985;-57
2022/03/23 12:34:18;;;;;;;;;;;17.00;57.90;;;;;;5094307;28;19924;-58
2022/03/23 12:37:04;;;;;;;;;;;17.30;57.50;;;;;;5093918;28;20468;-58
2022/03/23 12:39:35;;;;;;;;;;;17.30;56.50;;;;;;5094125;28;20368;-58
2022/03/23 12:42:16;;;;;;;;;;;17.10;55.90;;;;;;5093945;28;19935;-59
2022/03/23 12:44:47;;;;;;;;;;;17.30;57.20;;;;;;5094296;28;20018;-58
2022/03/23 12:47:15;;;;;;;;;;;17.20;57.90;;;;;;5093860;28;19974;-58
2022/03/23 12:58:01;;;;;;;;;;;17.30;58.10;;;;;;5093620;28;19931;-58
2022/03/23 13:00:31;;;;;;;;;;;17.10;58.20;;;;;;5093996;28;19931;-58
2022/03/23 13:03:31;;;;;;;;;;;17.10;55.40;;;;;;5093449;28;19977;-58
2022/03/23 13:06:08;;;;;;;;;;;17.30;55.70;;;;;;5093484;28;19924;-58
2022/03/23 13:08:48;;;;;;;;;;;17.00;54.70;;;;;;5093628;28;19924;-58
2022/03/23 13:11:16;;;;;;;;;;;16.60;54.30;;;;;;5093653;28;19987;-57
2022/03/23 13:13:45;;;;;;;;;;;16.70;56.90;;;;;;5093622;28;19997;-58
2022/03/23 13:16:14;;;;;;;;;;;17.00;57.80;;;;;;5092990;28;19924;-58
2022/03/23 13:18:41;;;;;;;;;;;16.50;56.70;;;;;;5098534;28;19924;-58
2022/03/23 13:21:10;;;;;;;;;;;16.20;57.40;;;;;;5113810;28;19924;-58
2022/03/23 13:23:37;;;;;;;;;;;16.20;58.10;;;;;;5114064;28;19924;-58
2022/03/23 13:26:04;;;;;;;;;;;16.30;56.50;;;;;;5113858;28;19985;-58
2022/03/23 13:28:32;;;;;;;;;;;16.50;56.40;;;;;;5111929;28;19924;-58
2022/03/23 13:30:59;;;;;;;;;;;16.80;55.70;;;;;;5112681;28;20003;-58
2022/03/23 13:33:35;;;;;;;;;;;16.70;55.30;;;;;;5113513;28;20019;-58
2022/03/23 13:36:02;;;;;;;;;;;16.80;54.50;;;;;;5113035;28;19949;-58
2022/03/23 13:38:33;;;;;;;;;;;16.90;55.70;;;;;;5113041;28;20353;-58
2022/03/23 13:43:44;;;;;;;;;;;16.90;52.90;;;;;;5113818;28;19930;-58
2022/03/23 13:46:11;;;;;;;;;;;16.60;54.30;;;;;;5113396;28;19985;-57
2022/03/23 13:48:39;;;;;;;;;;;16.60;54.80;;;;;;5112778;28;19936;-57
2022/03/23 13:51:06;;;;;;;;;;;16.40;54.30;;;;;;5113214;28;20009;-58
2022/03/23 13:53:32;;;;;;;;;;;16.50;56.70;;;;;;5113505;28;20072;-57
2022/03/23 13:55:59;;;;;;;;;;;16.80;55.80;;;;;;5112852;28;19931;-58
2022/03/23 13:58:27;;;;;;;;;;;16.70;54.40;;;;;;5112966;28;20390;-57
2022/03/23 14:00:55;;;;;;;;;;;16.80;53.90;;;;;;5112984;28;20346;-57
2022/03/23 14:03:24;;;;;;;;;;;16.90;53.60;;;;;;5112741;28;19928;-57
2022/03/23 14:06:06;;;;;;;;;;;16.90;52.80;;;;;;5112726;28;19931;-57
2022/03/23 14:08:34;;;;;;;;;;;17.10;52.90;;;;;;5092552;28;19928;-57
2022/03/23 14:11:01;;;;;;;;;;;17.40;53.50;;;;;;5111959;28;19923;-57
2022/03/23 14:13:28;;;;;;;;;;;17.50;52.60;;;;;;5112988;28;19923;-57
2022/03/23 14:15:55;;;;;;;;;;;17.60;52.00;;;;;;5112594;28;19946;-57
2022/03/23 14:18:22;;;;;;;;;;;17.60;52.80;;;;;;5109984;28;20903;-57
2022/03/23 14:20:53;;;;;;;;;;;17.70;52.40;;;;;;5112337;28;20018;-58
2022/03/23 14:23:22;;;;;;;;;;;17.50;54.30;;;;;;5112639;28;19957;-57
2022/03/23 14:25:50;;;;;;;;;;;17.50;52.80;;;;;;5112800;28;19924;-57
2022/03/23 14:28:19;;;;;;;;;;;17.20;54.40;;;;;;5112528;28;19930;-57
2022/03/23 14:30:49;;;;;;;;;;;17.40;53.90;;;;;;5111519;28;20341;-57
2022/03/23 14:33:20;;;;;;;;;;;17.30;53.80;;;;;;5111739;28;19963;-57
2022/03/23 14:35:47;;;;;;;;;;;17.60;53.10;;;;;;5112263;28;20018;-57
2022/03/23 14:38:16;;;;;;;;;;;17.40;54.00;;;;;;5112030;28;20022;-57
2022/03/23 14:40:48;;;;;;;;;;;17.50;53.50;;;;;;5112123;28;19992;-57
2022/03/23 14:43:26;;;;;;;;;;;17.70;54.10;;;;;;5110584;28;19953;-57
2022/03/23 14:45:53;;;;;;;;;;;17.70;53.90;;;;;;5110907;28;19988;-57
2022/03/23 14:48:20;;;;;;;;;;;17.30;53.60;;;;;;5110409;28;19932;-57
2022/03/23 14:50:48;;;;;;;;;;;17.40;54.40;;;;;;5106925;28;19977;-57
2022/03/23 14:53:15;;;;;;;;;;;17.60;54.20;;;;;;5109999;28;19923;-57
2022/03/23 14:55:42;;;;;;;;;;;17.40;54.20;;;;;;5110936;28;19924;-57
2022/03/23 14:58:23;;;;;;;;;;;17.60;54.60;;;;;;5110489;28;20010;-57
2022/03/23 15:00:49;;;;;;;;;;;17.50;54.60;;;;;;5110646;28;19954;-57
2022/03/23 15:03:17;;;;;;;;;;;17.40;54.90;;;;;;5106730;28;19924;-58
2022/03/23 15:13:57;;;;;;;;;;;17.50;55.20;;;;;;5112047;28;19970;-57